Bristol, Georgia
Current Conditions -  °F | °C
As of 1:15 PM on Friday 19 Dec 2014 (Local Time) from KAYS Reporting Station
Clear Clear  
Wind Chill: 65°   Ceiling: Unl
Heat Index: 65°   Visibility: 10mi
Dew Point: 44°   Wind: 3mph
Humidity: 47%   Direction: 360°N
Pressure: 30.12"   Gusts: NA
Location:  31.45°N, 82.21°W
Report Text: KAYS 191815Z AUTO 36003KT 10SM CLR 18/07 A3012 RMK AO2 T01820068
Loading
Personal Weather Stations






























Interactive Weather Map New forecast layout! Learn more

10-Day Weather Forecast

Advertisements
Track Severe Weather on mobile